Time;durP1;ratioP1;P1;durP2;ratioP2;P2;SDS_P1;SDS_P2;PMS_P1;PMS_P2;Temp;Humidity;BMP_temperature;BMP_pressure;BME280_temperature;BME280_humidity;BME280_pressure;Samples;Min_cycle;Max_cycle;Signal;HPM_P1;HPM_P2
2022/08/14 00:01:10;;;;;;;19.50;14.20;;;;;;;18.12;83.38;98413.98;88393;1274;22576;-73
2022/08/14 00:03:24;;;;;;;17.70;14.70;;;;;;;18.12;83.23;98414.88;88373;1271;99347;-70
2022/08/14 00:05:26;;;;;;;17.60;15.40;;;;;;;18.11;83.26;98412.50;88662;1271;22734;-73
2022/08/14 00:07:27;;;;;;;17.50;14.50;;;;;;;18.12;83.42;98410.69;88611;1269;25587;-73
2022/08/14 00:09:29;;;;;;;16.80;14.80;;;;;;;18.11;83.35;98409.11;88484;1271;98892;-72
2022/08/14 00:11:31;;;;;;;19.70;15.10;;;;;;;18.11;83.34;98410.21;88537;1273;22556;-72
2022/08/14 00:13:34;;;;;;;23.60;15.30;;;;;;;18.11;83.32;98405.61;88488;1271;23840;-72
2022/08/14 00:15:42;;;;;;;21.80;15.50;;;;;;;18.10;83.33;98400.49;88409;1274;99284;-73
2022/08/14 00:17:45;;;;;;;20.90;16.00;;;;;;;18.11;83.29;98399.57;88555;1271;22833;-72
2022/08/14 00:19:48;;;;;;;20.50;15.70;;;;;;;18.10;83.34;98393.01;88430;1273;24355;-73
2022/08/14 00:21:51;;;;;;;24.90;15.10;;;;;;;18.11;83.39;98394.19;88522;1271;99057;-73
2022/08/14 00:23:55;;;;;;;20.60;16.10;;;;;;;18.11;83.33;98393.51;88783;1272;23197;-72
2022/08/14 00:25:57;;;;;;;19.50;14.90;;;;;;;18.10;83.40;98395.34;88515;1274;22861;-73
2022/08/14 00:27:59;;;;;;;26.20;15.40;;;;;;;18.11;83.32;98389.77;88461;1271;98294;-73
2022/08/14 00:30:01;;;;;;;21.70;15.70;;;;;;;18.11;83.38;98390.16;88396;1274;22555;-73
2022/08/14 00:32:03;;;;;;;20.80;15.20;;;;;;;18.11;83.31;98387.29;88532;1273;24289;-71
2022/08/14 00:34:05;;;;;;;21.80;15.30;;;;;;;18.12;83.55;98388.96;88433;1271;99157;-71
2022/08/14 00:36:08;;;;;;;26.10;15.30;;;;;;;18.12;83.29;98389.10;88652;1271;22840;-72
2022/08/14 00:38:10;;;;;;;22.60;15.70;;;;;;;18.13;83.43;98388.71;88442;1274;22592;-73
2022/08/14 00:40:16;;;;;;;18.50;14.50;;;;;;;18.13;83.35;98389.02;88504;1271;99436;-72
2022/08/14 00:42:19;;;;;;;26.10;15.70;;;;;;;18.12;83.34;98383.77;88459;1274;23116;-73
2022/08/14 00:44:21;;;;;;;16.00;13.40;;;;;;;18.13;83.40;98384.62;88459;1271;23117;-73
2022/08/14 00:46:23;;;;;;;19.40;14.20;;;;;;;18.12;83.38;98380.47;88513;1271;98240;-72
2022/08/14 00:48:25;;;;;;;25.80;14.90;;;;;;;18.11;83.23;98373.97;88488;1274;22618;-72
2022/08/14 00:50:29;;;;;;;22.50;15.40;;;;;;;18.10;83.33;98372.74;88567;1271;25952;-74
2022/08/14 00:52:31;;;;;;;17.40;15.10;;;;;;;18.10;83.38;98369.42;88273;1274;99088;-73
2022/08/14 00:54:33;;;;;;;26.60;15.50;;;;;;;18.08;83.36;98371.15;88719;1271;22486;-73
2022/08/14 00:56:36;;;;;;;19.50;14.50;;;;;;;18.07;83.38;98370.53;88688;1271;25785;-73
2022/08/14 00:58:37;;;;;;;19.50;14.90;;;;;;;18.06;83.41;98370.31;88641;1271;97926;-72
2022/08/14 01:00:39;;;;;;;21.80;15.60;;;;;;;18.05;83.47;98370.71;88675;1271;22730;-71
2022/08/14 01:02:43;;;;;;;26.40;15.60;;;;;;;18.03;83.31;98368.37;88611;1271;22695;-70
2022/08/14 01:04:46;;;;;;;22.10;16.50;;;;;;;18.01;83.48;98369.81;88513;1271;101010;-73
2022/08/14 01:06:50;;;;;;;24.10;15.20;;;;;;;18.01;83.42;98369.52;88798;1271;23514;-73
2022/08/14 01:08:54;;;;;;;20.70;15.50;;;;;;;18.00;83.48;98368.35;88373;1274;25456;-74
2022/08/14 01:10:57;;;;;;;21.60;15.80;;;;;;;18.00;83.49;98371.37;88736;1271;24350;-70
2022/08/14 01:13:00;;;;;;;26.80;15.20;;;;;;;17.99;83.51;98372.46;88396;1272;22777;-72
2022/08/14 01:15:02;;;;;;;26.50;15.60;;;;;;;18.00;83.57;98368.55;88469;1274;98239;-73
2022/08/14 01:17:04;;;;;;;22.90;15.60;;;;;;;18.00;83.54;98370.81;88668;1271;22591;-73
2022/08/14 01:21:38;;;;;;;23.10;16.20;;;;;;;18.01;83.58;98369.15;88705;1271;112317;-72
2022/08/14 01:23:52;;;;;;;26.00;16.10;;;;;;;18.02;83.47;98370.48;88624;1273;22576;-72
2022/08/14 01:25:54;;;;;;;23.40;16.00;;;;;;;18.02;83.69;98367.91;88511;1271;23250;-72
2022/08/14 01:27:56;;;;;;;31.70;16.30;;;;;;;18.03;83.57;98363.29;88351;1274;99188;-72
2022/08/14 01:29:58;;;;;;;19.60;15.00;;;;;;;18.03;83.52;98367.02;88424;1274;25684;-72
2022/08/14 01:32:03;;;;;;;26.70;16.40;;;;;;;18.03;83.58;98366.27;88611;1271;36530;-73
2022/08/14 01:34:08;;;;;;;29.60;16.90;;;;;;;18.04;83.59;98361.06;88531;1273;99042;-71
2022/08/14 01:36:11;;;;;;;31.90;17.60;;;;;;;18.03;83.57;98359.86;88757;1274;24100;-72
2022/08/14 01:38:16;;;;;;;20.80;16.00;;;;;;;18.04;83.59;98361.73;88679;1271;22560;-72
2022/08/14 01:40:22;;;;;;;27.30;16.50;;;;;;;18.03;83.63;98358.23;88436;1271;98020;-73
2022/08/14 01:42:26;;;;;;;22.00;18.00;;;;;;;18.03;83.64;98359.50;88760;1271;23210;-71
2022/08/14 01:44:30;;;;;;;27.80;18.30;;;;;;;18.03;83.67;98359.16;88614;1271;23175;-71
2022/08/14 01:46:35;;;;;;;23.70;17.90;;;;;;;18.03;83.62;98358.95;88403;1271;99264;-72
2022/08/14 01:48:40;;;;;;;27.50;17.60;;;;;;;18.03;83.65;98358.06;88795;1273;23123;-73
2022/08/14 01:50:42;;;;;;;22.60;18.90;;;;;;;18.03;83.63;98355.94;88534;1274;24347;-73
2022/08/14 01:52:44;;;;;;;27.90;18.40;;;;;;;18.03;83.62;98352.27;88473;1271;99380;-72
2022/08/14 01:54:46;;;;;;;29.80;18.00;;;;;;;18.03;83.61;98350.96;88642;1271;24323;-72
2022/08/14 01:56:55;;;;;;;30.80;19.10;;;;;;;18.03;83.65;98353.48;88535;1271;23339;-71
2022/08/14 01:58:56;;;;;;;35.80;18.90;;;;;;;18.03;83.59;98355.63;88731;1271;24180;-72
2022/08/14 02:00:58;;;;;;;24.80;18.80;;;;;;;18.02;83.65;98353.38;88521;1274;22594;-73
2022/08/14 02:03:00;;;;;;;20.20;17.80;;;;;;;18.03;83.77;98355.29;88498;1271;99923;-69
2022/08/14 02:05:02;;;;;;;23.30;17.70;;;;;;;18.02;83.69;98355.32;88523;1274;22715;-70
2022/08/14 02:07:06;;;;;;;27.20;20.20;;;;;;;18.03;83.64;98356.52;88302;1274;25347;-72
2022/08/14 02:09:08;;;;;;;28.40;17.60;;;;;;;18.02;83.71;98350.74;88499;1274;98161;-71
2022/08/14 02:11:17;;;;;;;27.10;18.80;;;;;;;18.02;83.56;98350.58;88574;1271;22562;-72
2022/08/14 02:13:19;;;;;;;32.00;18.80;;;;;;;18.01;83.64;98347.40;88606;1274;24220;-72
2022/08/14 02:15:21;;;;;;;19.40;17.50;;;;;;;18.00;83.49;98345.38;88457;1271;99367;-71
2022/08/14 02:17:23;;;;;;;26.60;18.00;;;;;;;17.99;83.59;98338.58;88492;1271;22559;-72
2022/08/14 02:19:28;;;;;;;24.10;17.50;;;;;;;17.97;83.51;98337.11;88521;1274;24320;-72
2022/08/14 02:21:35;;;;;;;23.10;17.40;;;;;;;17.97;83.60;98336.63;88510;1271;99090;-72
2022/08/14 02:23:37;;;;;;;25.60;19.50;;;;;;;17.96;83.64;98337.09;88544;1273;22681;-72
2022/08/14 02:25:38;;;;;;;21.80;18.40;;;;;;;17.96;83.60;98335.13;88784;1271;24685;-72
2022/08/14 02:27:41;;;;;;;26.50;19.00;;;;;;;17.95;83.60;98335.69;88290;1274;98248;-72
2022/08/14 02:29:43;;;;;;;26.50;18.90;;;;;;;17.95;83.67;98337.52;88733;1271;22500;-71
2022/08/14 02:31:54;;;;;;;25.90;18.60;;;;;;;17.95;83.61;98338.93;88512;1273;23282;-71
2022/08/14 02:33:56;;;;;;;28.40;19.30;;;;;;;17.94;83.63;98337.19;88375;1273;98586;-72
2022/08/14 02:35:58;;;;;;;23.40;19.00;;;;;;;17.95;83.66;98339.08;88529;1274;23072;-71
2022/08/14 02:38:00;;;;;;;25.80;18.80;;;;;;;17.95;83.74;98336.77;88471;1271;22591;-71
2022/08/14 02:40:02;;;;;;;26.00;18.40;;;;;;;17.95;83.75;98337.84;88417;1271;99132;-71
2022/08/14 02:42:07;;;;;;;27.60;18.80;;;;;;;17.96;83.70;98340.13;88632;1271;23342;-69
2022/08/14 02:44:10;;;;;;;25.20;19.00;;;;;;;17.96;83.69;98335.33;88612;1271;22712;-71
2022/08/14 02:46:12;;;;;;;28.80;19.90;;;;;;;17.96;83.83;98335.30;88491;1273;99323;-71
2022/08/14 02:48:14;;;;;;;29.90;19.10;;;;;;;17.95;83.81;98339.95;88599;1271;22636;-71
2022/08/14 02:50:16;;;;;;;31.50;19.90;;;;;;;17.96;83.70;98340.95;88316;1274;24364;-71
2022/08/14 02:52:17;;;;;;;26.00;18.80;;;;;;;17.96;83.71;98345.39;88386;1271;98625;-70
2022/08/14 02:54:21;;;;;;;24.10;18.00;;;;;;;17.96;83.69;98342.73;88508;1271;22716;-70
2022/08/14 02:56:26;;;;;;;24.80;17.70;;;;;;;17.96;83.71;98342.73;88659;1271;22781;-71
2022/08/14 02:58:29;;;;;;;26.10;17.90;;;;;;;17.96;83.61;98344.89;88484;1272;99322;-70
2022/08/14 03:00:34;;;;;;;25.30;18.20;;;;;;;17.95;83.69;98336.42;88560;1271;25023;-71
2022/08/14 03:02:35;;;;;;;20.90;17.80;;;;;;;17.95;83.74;98335.15;88509;1274;22500;-70
2022/08/14 03:04:37;;;;;;;31.60;19.50;;;;;;;17.95;83.81;98334.64;88454;1271;102826;-71
2022/08/14 03:06:42;;;;;;;34.30;18.80;;;;;;;17.95;83.77;98335.85;88759;1271;22574;-71
2022/08/14 03:08:44;;;;;;;22.30;18.50;;;;;;;17.95;83.75;98335.35;88688;1273;25386;-72
2022/08/14 03:10:46;;;;;;;28.60;18.60;;;;;;;17.95;83.77;98339.25;88718;1271;101016;-70
2022/08/14 03:12:49;;;;;;;26.70;18.00;;;;;;;17.95;83.75;98336.98;88700;1271;24262;-71
2022/08/14 03:14:51;;;;;;;27.30;18.60;;;;;;;17.95;83.80;98337.17;88690;1271;25251;-70
2022/08/14 03:16:54;;;;;;;29.50;19.10;;;;;;;17.95;83.80;98335.73;87489;1269;1611206;-72
2022/08/14 03:18:59;;;;;;;29.00;17.50;;;;;;;17.95;83.74;98330.55;88624;1271;22503;-72
2022/08/14 03:21:10;;;;;;;35.50;19.00;;;;;;;17.95;83.79;98334.82;88957;1271;99354;-71
2022/08/14 03:23:13;;;;;;;45.20;19.10;;;;;;;17.95;83.74;98328.23;88612;1271;22524;-71
2022/08/14 03:25:14;;;;;;;26.50;19.00;;;;;;;17.97;83.75;98333.11;88551;1274;25321;-72
2022/08/14 03:27:16;;;;;;;34.30;19.70;;;;;;;17.97;83.86;98333.27;88528;1271;98585;-72
2022/08/14 03:29:21;;;;;;;25.90;18.50;;;;;;;17.97;83.69;98329.84;88764;1271;22539;-71
2022/08/14 03:31:22;;;;;;;30.30;19.20;;;;;;;17.98;83.83;98328.72;88436;1273;22705;-71
2022/08/14 03:33:25;;;;;;;29.30;18.60;;;;;;;17.98;83.81;98328.86;88495;1271;99660;-71
2022/08/14 03:35:29;;;;;;;28.30;18.70;;;;;;;17.99;83.76;98331.12;88610;1271;22655;-71
2022/08/14 03:37:32;;;;;;;27.60;20.20;;;;;;;17.98;83.86;98323.53;88646;1272;22666;-72
2022/08/14 03:39:34;;;;;;;31.00;19.70;;;;;;;17.98;83.82;98326.92;88456;1273;99802;-72
2022/08/14 03:41:36;;;;;;;29.20;19.40;;;;;;;17.98;83.80;98329.23;88598;1271;22567;-72
2022/08/14 03:43:38;;;;;;;27.50;19.70;;;;;;;17.98;83.78;98331.02;88669;1274;25306;-71
2022/08/14 03:45:41;;;;;;;31.90;19.60;;;;;;;17.98;83.74;98332.45;88610;1274;99902;-71
2022/08/14 03:47:42;;;;;;;29.20;18.70;;;;;;;17.97;83.93;98330.77;88586;1271;22929;-73
2022/08/14 03:49:45;;;;;;;30.40;20.40;;;;;;;17.96;83.89;98331.17;88648;1271;25260;-72
2022/08/14 03:51:47;;;;;;;25.80;18.00;;;;;;;17.96;83.93;98330.80;88569;1274;99081;-72
2022/08/14 03:53:48;;;;;;;31.20;19.60;;;;;;;17.96;83.82;98332.98;88784;1271;25266;-70
2022/08/14 03:55:57;;;;;;;37.00;20.60;;;;;;;17.96;83.85;98331.55;88690;1274;22680;-71
2022/08/14 03:57:59;;;;;;;35.30;19.40;;;;;;;17.96;83.88;98328.56;88645;1271;98059;-72
2022/08/14 04:00:09;;;;;;;25.90;18.80;;;;;;;17.95;83.87;98328.42;88757;1273;22575;-70
2022/08/14 04:02:11;;;;;;;27.10;18.50;;;;;;;17.95;83.89;98329.53;88993;1271;23303;-73
2022/08/14 04:04:13;;;;;;;26.00;18.60;;;;;;;17.95;83.83;98325.38;88576;1273;99037;-70
2022/08/14 04:06:16;;;;;;;23.20;16.90;;;;;;;17.96;83.94;98326.25;88603;1271;23612;-72
2022/08/14 04:08:18;;;;;;;28.40;18.90;;;;;;;17.96;83.84;98328.39;88725;1271;23251;-72
2022/08/14 04:10:20;;;;;;;29.50;18.70;;;;;;;17.96;83.91;98323.59;88647;1271;101008;-72
2022/08/14 04:12:22;;;;;;;32.20;19.70;;;;;;;17.96;83.97;98321.64;88745;1271;24312;-72
2022/08/14 04:14:23;;;;;;;34.30;19.30;;;;;;;17.96;83.88;98323.40;88727;1271;22579;-72
2022/08/14 04:16:25;;;;;;;29.80;19.60;;;;;;;17.97;83.90;98327.40;88686;1271;99176;-72
2022/08/14 04:18:28;;;;;;;30.30;19.20;;;;;;;17.96;83.79;98324.04;88829;1271;23862;-72
2022/08/14 04:20:30;;;;;;;28.50;18.50;;;;;;;17.96;83.93;98325.46;88735;1271;22712;-72
2022/08/14 04:22:33;;;;;;;27.50;18.60;;;;;;;17.96;83.91;98325.64;88602;1273;98975;-70
2022/08/14 04:24:35;;;;;;;26.00;19.70;;;;;;;17.97;83.96;98325.60;88748;1274;22881;-71
2022/08/14 04:26:37;;;;;;;31.00;18.50;;;;;;;17.97;83.88;98322.20;88708;1271;22556;-72
2022/08/14 04:28:41;;;;;;;26.00;18.70;;;;;;;17.97;83.83;98322.00;88717;1271;99146;-72
2022/08/14 04:30:43;;;;;;;25.40;18.00;;;;;;;17.97;83.93;98323.45;88839;1270;25273;-71
2022/08/14 04:32:44;;;;;;;37.10;18.20;;;;;;;17.98;83.96;98322.69;88553;1274;22747;-70
2022/08/14 04:34:46;;;;;;;27.80;18.80;;;;;;;17.99;83.89;98319.52;88614;1274;98896;-71
2022/08/14 04:43:56;;;;;;;27.30;17.10;;;;;;;18.03;83.97;98318.94;88789;1271;25015;-72
2022/08/14 04:45:58;;;;;;;24.20;15.80;;;;;;;18.04;84.01;98315.02;88896;1270;99041;-71
2022/08/14 04:48:11;;;;;;;37.80;18.10;;;;;;;18.05;84.03;98317.59;88759;1274;22916;-71
2022/08/14 04:50:13;;;;;;;20.50;15.40;;;;;;;18.06;83.93;98312.48;88800;1272;22558;-72
2022/08/14 04:52:14;;;;;;;24.30;16.00;;;;;;;18.07;83.92;98313.50;88408;1271;99175;-72
2022/08/14 04:54:16;;;;;;;25.10;17.20;;;;;;;18.08;83.94;98313.77;88562;1271;24104;-72
2022/08/14 04:56:22;;;;;;;21.70;16.20;;;;;;;18.09;83.96;98315.75;88708;1272;23216;-72
2022/08/14 04:58:27;;;;;;;22.30;15.70;;;;;;;18.12;83.90;98315.92;88718;1274;99211;-72
2022/08/14 05:00:29;;;;;;;21.70;15.00;;;;;;;18.13;83.92;98312.73;88787;1271;26712;-72
2022/08/14 05:02:33;;;;;;;20.60;14.30;;;;;;;18.15;83.97;98311.17;88698;1271;25637;-72
2022/08/14 05:04:35;;;;;;;21.20;13.50;;;;;;;18.17;83.90;98307.59;89037;1274;98005;-72
2022/08/14 05:06:37;;;;;;;21.60;14.10;;;;;;;18.19;83.96;98307.73;88697;1274;24195;-71
2022/08/14 05:08:41;;;;;;;20.80;12.20;;;;;;;18.23;83.96;98306.59;89175;1271;25056;-72
2022/08/14 05:10:45;;;;;;;14.80;11.40;;;;;;;18.25;83.91;98302.43;88708;1271;99594;-72
2022/08/14 05:12:47;;;;;;;18.10;12.00;;;;;;;18.28;84.02;98299.21;88574;1271;22561;-72
2022/08/14 05:14:49;;;;;;;13.10;10.80;;;;;;;18.31;83.89;98307.57;88707;1269;22564;-71
2022/08/14 05:16:51;;;;;;;15.50;10.70;;;;;;;18.35;83.98;98307.91;88462;1271;98897;-71
2022/08/14 05:18:53;;;;;;;11.60;10.30;;;;;;;18.39;83.94;98310.95;88489;1271;22570;-71
2022/08/14 05:20:56;;;;;;;20.70;10.80;;;;;;;18.42;83.93;98306.20;88504;1274;23258;-71
2022/08/14 05:22:58;;;;;;;14.10;10.20;;;;;;;18.45;83.78;98309.34;88686;1271;22582;-70
2022/08/14 05:25:02;;;;;;;12.90;9.80;;;;;;;18.47;83.82;98309.14;88564;1273;24300;-72
2022/08/14 05:27:04;;;;;;;10.60;8.40;;;;;;;18.48;83.81;98307.79;88513;1271;99611;-71
2022/08/14 05:29:08;;;;;;;10.30;9.00;;;;;;;18.48;83.74;98309.20;88850;1271;22566;-70
2022/08/14 05:31:12;;;;;;;9.30;8.50;;;;;;;18.48;83.73;98307.44;88969;1268;24384;-71
2022/08/14 05:33:17;;;;;;;9.60;8.70;;;;;;;18.53;83.78;98307.94;88551;1275;98970;-71
2022/08/14 05:35:19;;;;;;;7.40;6.70;;;;;;;18.54;83.73;98307.96;88729;1271;23501;-70
2022/08/14 05:37:21;;;;;;;7.60;6.80;;;;;;;18.56;83.76;98305.67;88537;1274;24128;-72
2022/08/14 05:39:23;;;;;;;8.50;6.00;;;;;;;18.58;83.75;98303.77;88453;1273;99972;-72
2022/08/14 05:41:24;;;;;;;5.30;4.90;;;;;;;18.59;83.73;98302.80;88571;1271;22567;-72
2022/08/14 05:43:26;;;;;;;7.00;5.20;;;;;;;18.60;83.61;98301.26;88705;1271;22584;-72
2022/08/14 05:45:28;;;;;;;4.40;4.00;;;;;;;18.61;83.68;98298.44;88694;1271;98552;-72
2022/08/14 05:47:29;;;;;;;3.70;3.40;;;;;;;18.62;83.59;98293.02;88451;1273;26847;-70
2022/08/14 05:49:31;;;;;;;3.30;3.10;;;;;;;18.64;83.60;98295.19;88721;1271;22580;-72
2022/08/14 05:51:32;;;;;;;3.50;3.20;;;;;;;18.66;83.64;98293.58;88408;1274;99998;-71
2022/08/14 05:53:34;;;;;;;4.30;3.10;;;;;;;18.68;83.57;98294.11;88530;1273;23501;-71
2022/08/14 05:55:36;;;;;;;7.60;2.60;;;;;;;18.72;83.59;98295.34;88538;1274;24220;-71
2022/08/14 05:57:59;;;;;;;3.00;2.80;;;;;;;18.75;83.60;98299.30;88589;1271;98602;-71
2022/08/14 06:00:01;;;;;;;4.30;2.80;;;;;;;18.80;83.66;98300.44;88562;1271;22623;-71
2022/08/14 06:02:02;;;;;;;4.00;2.70;;;;;;;18.83;83.62;98304.78;87567;1274;22772;-71
2022/08/14 06:04:04;;;;;;;2.80;2.60;;;;;;;18.86;83.63;98308.20;88189;1273;98866;-71
2022/08/14 06:06:06;;;;;;;2.50;2.30;;;;;;;18.88;83.69;98306.13;88589;1271;23790;-70
2022/08/14 06:08:20;;;;;;;2.80;2.60;;;;;;;18.90;83.58;98310.43;88537;1272;22563;-71
2022/08/14 06:10:21;;;;;;;2.70;2.50;;;;;;;18.90;83.65;98307.73;88511;1271;100219;-69
2022/08/14 06:12:23;;;;;;;2.20;2.10;;;;;;;18.91;83.49;98308.04;88530;1272;22573;-71
2022/08/14 06:14:24;;;;;;;6.50;2.00;;;;;;;18.93;83.63;98311.05;88457;1271;25149;-69
2022/08/14 06:16:26;;;;;;;1.90;1.80;;;;;;;18.95;83.60;98312.84;88419;1272;99158;-71
2022/08/14 06:18:28;;;;;;;2.40;1.70;;;;;;;18.95;83.54;98310.84;88562;1269;25562;-71
2022/08/14 06:20:30;;;;;;;4.70;2.30;;;;;;;18.96;83.54;98313.98;88503;1271;23244;-69
2022/08/14 06:22:31;;;;;;;2.10;1.80;;;;;;;18.99;83.60;98315.14;88203;1274;98951;-70
2022/08/14 06:24:33;;;;;;;1.60;1.50;;;;;;;19.00;83.65;98313.38;88367;1273;25706;-70
2022/08/14 06:26:34;;;;;;;1.70;1.60;;;;;;;19.01;83.51;98317.18;88552;1271;22699;-71
2022/08/14 06:28:36;;;;;;;1.50;1.40;;;;;;;19.01;83.50;98314.20;88443;1271;98665;-70
2022/08/14 06:30:38;;;;;;;1.50;1.20;;;;;;;19.02;83.50;98317.15;88631;1271;24677;-71
2022/08/14 06:32:40;;;;;;;1.10;1.10;;;;;;;19.03;83.69;98316.64;88434;1273;22859;-71
2022/08/14 06:34:42;;;;;;;1.20;1.20;;;;;;;19.03;83.42;98314.70;88276;1273;98700;-71
2022/08/14 06:36:43;;;;;;;1.70;1.60;;;;;;;19.04;83.51;98313.69;88387;1274;23472;-72
2022/08/14 06:38:45;;;;;;;1.70;1.50;;;;;;;19.07;83.68;98310.61;88436;1274;23167;-71
2022/08/14 06:40:48;;;;;;;1.60;1.50;;;;;;;19.11;83.57;98306.00;88414;1271;98692;-70
2022/08/14 06:42:50;;;;;;;3.50;1.40;;;;;;;19.13;83.52;98305.73;88259;1276;22635;-72
2022/08/14 06:44:52;;;;;;;1.40;1.10;;;;;;;19.15;83.38;98309.13;88488;1274;22654;-70
2022/08/14 06:46:53;;;;;;;1.10;1.10;;;;;;;19.17;83.49;98306.98;88252;1273;98507;-72
2022/08/14 06:48:55;;;;;;;1.40;1.30;;;;;;;19.15;83.33;98304.99;88533;1271;22564;-71
2022/08/14 06:50:57;;;;;;;0.90;0.90;;;;;;;19.16;83.31;98306.94;88374;1273;22581;-72
2022/08/14 06:52:58;;;;;;;1.40;1.30;;;;;;;19.15;83.32;98304.35;88689;1271;23857;-70
2022/08/14 06:55:00;;;;;;;1.20;1.20;;;;;;;19.15;83.32;98305.21;88770;1274;24144;-71
2022/08/14 06:57:02;;;;;;;1.40;1.30;;;;;;;19.17;83.41;98301.79;88444;1273;99611;-71
2022/08/14 06:59:04;;;;;;;1.40;1.30;;;;;;;19.20;83.37;98301.55;88456;1272;22554;-71
2022/08/14 07:05:48;;;;;;;1.40;1.30;;;;;;;19.29;83.46;98303.44;88579;1271;25162;-72
2022/08/14 07:07:50;;;;;;;1.20;1.00;;;;;;;19.29;83.19;98306.05;88293;1274;22946;-72
2022/08/14 07:09:52;;;;;;;3.90;1.10;;;;;;;19.30;83.30;98305.04;88112;1275;98791;-71
2022/08/14 07:11:54;;;;;;;1.20;1.20;;;;;;;19.32;83.28;98301.31;88358;1274;22732;-72
2022/08/14 07:13:55;;;;;;;1.30;1.20;;;;;;;19.34;83.23;98299.57;88367;1274;22629;-70
2022/08/14 07:15:59;;;;;;;1.30;1.20;;;;;;;19.35;83.22;98298.84;88265;1272;98860;-71
2022/08/14 07:18:02;;;;;;;1.40;1.40;;;;;;;19.39;83.31;98300.30;88324;1274;22680;-71
2022/08/14 07:20:05;;;;;;;1.10;1.00;;;;;;;19.42;83.30;98302.82;88533;1271;22895;-71
2022/08/14 07:22:06;;;;;;;1.20;1.10;;;;;;;19.46;83.24;98304.73;88309;1270;99460;-70
2022/08/14 07:24:08;;;;;;;1.30;1.20;;;;;;;19.50;83.18;98301.05;88227;1274;22499;-73
2022/08/14 07:26:12;;;;;;;8.80;1.30;;;;;;;19.54;83.39;98301.46;88313;1274;22564;-70
2022/08/14 07:28:20;;;;;;;1.00;1.00;;;;;;;19.59;83.21;98303.05;88703;1270;98727;-71
2022/08/14 07:30:23;;;;;;;1.20;1.00;;;;;;;19.61;83.09;98307.53;88424;1272;23275;-72
2022/08/14 07:32:24;;;;;;;4.50;1.50;;;;;;;19.63;83.04;98306.78;88247;1273;22726;-72
2022/08/14 07:34:26;;;;;;;6.20;1.00;;;;;;;19.65;83.02;98305.84;88322;1271;98654;-72
2022/08/14 07:36:27;;;;;;;1.60;0.90;;;;;;;19.67;83.11;98307.29;88355;1274;22591;-71
2022/08/14 07:38:29;;;;;;;1.10;1.00;;;;;;;19.66;82.91;98310.60;88354;1273;22557;-72
2022/08/14 07:40:33;;;;;;;1.20;1.10;;;;;;;19.66;82.98;98308.77;88129;1274;99164;-72
2022/08/14 07:42:35;;;;;;;1.30;1.20;;;;;;;19.67;83.04;98301.49;88356;1272;24259;-73
2022/08/14 07:44:37;;;;;;;1.30;1.20;;;;;;;19.69;82.98;98305.25;88380;1273;22514;-72
2022/08/14 07:46:39;;;;;;;1.30;1.20;;;;;;;19.69;82.89;98307.06;88056;1273;98692;-72
2022/08/14 07:48:42;;;;;;;5.30;1.40;;;;;;;19.69;82.92;98308.80;88513;1271;22729;-70
2022/08/14 07:50:45;;;;;;;2.30;1.80;;;;;;;19.69;82.83;98312.45;88058;1276;22556;-72
2022/08/14 07:52:48;;;;;;;2.60;2.10;;;;;;;19.67;82.89;98314.69;88158;1273;98735;-71
2022/08/14 07:54:51;;;;;;;2.20;2.10;;;;;;;19.68;82.76;98315.73;88354;1274;24866;-72
2022/08/14 07:56:53;;;;;;;6.00;2.50;;;;;;;19.69;82.81;98318.97;88344;1271;22727;-71
2022/08/14 07:58:55;;;;;;;2.10;2.00;;;;;;;19.72;82.80;98319.09;88277;1274;98403;-72
2022/08/14 08:00:56;;;;;;;3.20;2.20;;;;;;;19.72;82.77;98320.66;88067;1275;22723;-72
2022/08/14 08:02:58;;;;;;;2.30;2.20;;;;;;;19.75;82.97;98316.39;88381;1271;25505;-72
2022/08/14 08:05:01;;;;;;;3.30;2.50;;;;;;;19.81;82.94;98315.69;88171;1274;22730;-71
2022/08/14 08:07:03;;;;;;;2.70;2.10;;;;;;;19.88;82.92;98318.61;88036;1277;25265;-72
2022/08/14 08:09:08;;;;;;;2.00;1.90;;;;;;;19.93;82.91;98313.09;88138;1274;98316;-73
2022/08/14 08:11:11;;;;;;;2.70;2.50;;;;;;;20.00;82.81;98311.02;88373;1271;22749;-72
2022/08/14 08:13:16;;;;;;;4.50;2.40;;;;;;;20.03;82.63;98309.88;88241;1274;25429;-71
2022/08/14 08:15:19;;;;;;;2.70;2.50;;;;;;;20.06;82.65;98307.44;88639;1271;98939;-71
2022/08/14 08:17:22;;;;;;;2.40;2.30;;;;;;;20.12;82.66;98308.30;88410;1271;22558;-71
2022/08/14 08:19:24;;;;;;;4.60;2.30;;;;;;;20.20;82.71;98306.92;88330;1273;24244;-69
2022/08/14 08:21:25;;;;;;;2.60;2.40;;;;;;;20.27;82.63;98304.98;88329;1271;98729;-71
2022/08/14 08:23:31;;;;;;;2.60;2.30;;;;;;;20.34;82.50;98304.44;88555;1271;22657;-72
2022/08/14 08:25:36;;;;;;;2.60;2.40;;;;;;;20.41;82.47;98300.22;88265;1271;24769;-71
2022/08/14 08:27:39;;;;;;;3.00;2.80;;;;;;;20.48;82.47;98299.16;88488;1271;98749;-71
2022/08/14 08:29:41;;;;;;;2.80;2.60;;;;;;;20.56;82.39;98298.91;88248;1271;24770;-72
2022/08/14 08:31:50;;;;;;;2.90;2.70;;;;;;;20.63;82.35;98298.91;88218;1271;22656;-69
2022/08/14 08:33:52;;;;;;;3.20;2.70;;;;;;;20.71;82.35;98300.10;88531;1271;100527;-71
2022/08/14 08:35:58;;;;;;;2.80;2.60;;;;;;;20.77;82.08;98303.13;88302;1271;26527;-71
2022/08/14 08:38:06;;;;;;;3.00;2.80;;;;;;;20.79;81.92;98299.85;88231;1271;22713;-71
2022/08/14 08:40:08;;;;;;;3.00;2.80;;;;;;;20.86;82.07;98300.38;88279;1274;99003;-70
2022/08/14 08:42:10;;;;;;;3.00;2.80;;;;;;;20.94;82.04;98301.38;88093;1274;22577;-69
2022/08/14 08:44:13;;;;;;;3.50;2.90;;;;;;;20.99;81.94;98304.08;88459;1271;22591;-70
2022/08/14 08:46:19;;;;;;;3.30;3.00;;;;;;;21.04;81.95;98303.95;88448;1271;98770;-68
2022/08/14 08:48:30;;;;;;;6.60;3.60;;;;;;;21.05;81.76;98303.10;87779;1274;22716;-70
2022/08/14 08:50:37;;;;;;;5.30;3.30;;;;;;;20.99;81.61;98301.27;88520;1270;22602;-70
2022/08/14 08:52:46;;;;;;;11.20;3.30;;;;;;;20.99;81.62;98298.73;88142;1271;98827;-71
2022/08/14 08:54:54;;;;;;;5.10;3.30;;;;;;;21.03;81.67;98298.69;88240;1271;24228;-69
2022/08/14 08:56:56;;;;;;;14.70;3.60;;;;;;;21.06;81.60;98293.36;88255;1274;24900;-68
2022/08/14 08:58:58;;;;;;;7.80;4.00;;;;;;;21.10;81.57;98292.58;88588;1271;99307;-71
2022/08/14 09:01:00;;;;;;;4.20;3.90;;;;;;;21.15;81.53;98294.00;88289;1271;22573;-71
2022/08/14 09:03:17;;;;;;;4.70;4.10;;;;;;;21.21;81.54;98291.63;88176;1274;23000;-71
2022/08/14 09:05:18;;;;;;;4.40;4.00;;;;;;;21.26;81.43;98298.05;88330;1271;23410;-70
2022/08/14 09:07:26;;;;;;;6.20;4.70;;;;;;;21.30;81.36;98298.20;88320;1271;22623;-71
2022/08/14 09:09:30;;;;;;;5.40;5.00;;;;;;;21.33;81.30;98301.80;88312;1273;99451;-71
2022/08/14 09:11:32;;;;;;;6.10;5.60;;;;;;;21.37;81.34;98303.95;88288;1271;22900;-71
2022/08/14 09:13:34;;;;;;;6.20;5.20;;;;;;;21.38;81.34;98301.66;88548;1271;22561;-72
2022/08/14 09:15:41;;;;;;;6.10;5.30;;;;;;;21.40;81.24;98294.70;88524;1270;98726;-68
2022/08/14 09:17:43;;;;;;;5.70;5.20;;;;;;;21.40;80.99;98295.04;88481;1271;22650;-70
2022/08/14 09:19:47;;;;;;;6.30;5.40;;;;;;;21.40;81.05;98291.69;88739;1270;22567;-69
2022/08/14 09:21:49;;;;;;;6.60;4.90;;;;;;;21.39;80.96;98290.14;88558;1271;97887;-69
2022/08/14 09:23:53;;;;;;;5.20;4.70;;;;;;;21.39;81.06;98292.40;88525;1271;22705;-70
2022/08/14 09:25:55;;;;;;;4.50;4.10;;;;;;;21.42;80.82;98294.70;88608;1271;22586;-69
2022/08/14 09:27:56;;;;;;;5.10;4.60;;;;;;;21.41;80.81;98293.50;88456;1271;98670;-69
2022/08/14 09:29:58;;;;;;;7.10;6.30;;;;;;;21.38;80.83;98295.20;88878;1271;22631;-70
2022/08/14 09:32:04;;;;;;;8.30;7.60;;;;;;;21.36;80.78;98291.48;88967;1271;22784;-69
2022/08/14 09:34:26;;;;;;;8.80;8.00;;;;;;;21.35;80.79;98290.40;87389;1274;99021;-68
2022/08/14 09:36:50;;;;;;;9.60;8.70;;;;;;;21.33;80.79;98288.28;87916;1272;25382;-68
2022/08/14 09:39:12;;;;;;;9.30;7.20;;;;;;;21.31;80.79;98288.80;88690;1271;23181;-70
2022/08/14 09:41:50;;;;;;;9.20;8.30;;;;;;;21.33;80.80;98285.73;88597;1271;26754;-68
2022/08/14 09:44:04;;;;;;;11.40;8.80;;;;;;;21.35;80.85;98290.16;88553;1269;22890;-70
2022/08/14 09:46:06;;;;;;;9.00;8.00;;;;;;;21.39;80.88;98291.75;88436;1272;98745;-67
2022/08/14 09:48:19;;;;;;;10.90;7.20;;;;;;;21.48;80.88;98294.17;88572;1271;24193;-70